sensor_id;sensor_type;location;lat;lon;timestamp;P1;durP1;ratioP1;P2;durP2;ratioP2
55220;SDS011;41089;51.448;6.604;2024-03-22T00:00:22;31.08;;;21.40;;
55220;SDS011;41089;51.448;6.604;2024-03-22T00:06:23;30.93;;;22.27;;
55220;SDS011;41089;51.448;6.604;2024-03-22T00:12:23;35.38;;;22.67;;
55220;SDS011;41089;51.448;6.604;2024-03-22T00:18:25;32.58;;;22.48;;
55220;SDS011;41089;51.448;6.604;2024-03-22T00:24:25;31.97;;;21.80;;
55220;SDS011;41089;51.448;6.604;2024-03-22T00:36:26;30.35;;;21.95;;
55220;SDS011;41089;51.448;6.604;2024-03-22T00:42:26;29.85;;;21.45;;
55220;SDS011;41089;51.448;6.604;2024-03-22T00:48:27;30.65;;;21.65;;
55220;SDS011;41089;51.448;6.604;2024-03-22T00:54:27;36.30;;;22.50;;
55220;SDS011;41089;51.448;6.604;2024-03-22T01:06:28;37.53;;;22.23;;
55220;SDS011;41089;51.448;6.604;2024-03-22T01:12:29;31.00;;;21.20;;
55220;SDS011;41089;51.448;6.604;2024-03-22T01:18:29;29.50;;;20.95;;
55220;SDS011;41089;51.448;6.604;2024-03-22T01:24:30;33.60;;;22.05;;
55220;SDS011;41089;51.448;6.604;2024-03-22T01:30:31;33.45;;;21.90;;
55220;SDS011;41089;51.448;6.604;2024-03-22T01:36:33;32.25;;;20.75;;
55220;SDS011;41089;51.448;6.604;2024-03-22T01:48:34;33.58;;;22.77;;
55220;SDS011;41089;51.448;6.604;2024-03-22T01:54:34;36.17;;;22.55;;
55220;SDS011;41089;51.448;6.604;2024-03-22T02:00:35;32.57;;;23.40;;
55220;SDS011;41089;51.448;6.604;2024-03-22T02:12:35;34.88;;;22.13;;
55220;SDS011;41089;51.448;6.604;2024-03-22T02:18:36;32.83;;;21.58;;
55220;SDS011;41089;51.448;6.604;2024-03-22T02:24:36;28.05;;;21.20;;
55220;SDS011;41089;51.448;6.604;2024-03-22T02:30:37;32.40;;;21.40;;
55220;SDS011;41089;51.448;6.604;2024-03-22T02:42:37;33.13;;;21.85;;
55220;SDS011;41089;51.448;6.604;2024-03-22T02:54:38;37.97;;;23.95;;
55220;SDS011;41089;51.448;6.604;2024-03-22T03:00:38;36.17;;;24.60;;
55220;SDS011;41089;51.448;6.604;2024-03-22T03:06:39;37.90;;;26.02;;
55220;SDS011;41089;51.448;6.604;2024-03-22T03:12:39;37.60;;;23.00;;
55220;SDS011;41089;51.448;6.604;2024-03-22T03:18:39;44.13;;;26.33;;
55220;SDS011;41089;51.448;6.604;2024-03-22T03:24:41;36.05;;;23.92;;
55220;SDS011;41089;51.448;6.604;2024-03-22T03:36:42;37.95;;;25.83;;
55220;SDS011;41089;51.448;6.604;2024-03-22T03:42:44;42.65;;;26.70;;
55220;SDS011;41089;51.448;6.604;2024-03-22T03:48:44;34.97;;;25.70;;
55220;SDS011;41089;51.448;6.604;2024-03-22T03:54:44;42.40;;;25.90;;
55220;SDS011;41089;51.448;6.604;2024-03-22T04:06:45;35.97;;;25.98;;
55220;SDS011;41089;51.448;6.604;2024-03-22T04:12:46;42.35;;;27.30;;
55220;SDS011;41089;51.448;6.604;2024-03-22T04:18:47;35.58;;;24.95;;
55220;SDS011;41089;51.448;6.604;2024-03-22T04:31:00;36.38;;;24.35;;
55220;SDS011;41089;51.448;6.604;2024-03-22T04:37:01;36.63;;;24.90;;
55220;SDS011;41089;51.448;6.604;2024-03-22T04:43:02;34.10;;;24.57;;
55220;SDS011;41089;51.448;6.604;2024-03-22T04:49:02;30.77;;;21.93;;
55220;SDS011;41089;51.448;6.604;2024-03-22T04:55:02;29.07;;;21.40;;
55220;SDS011;41089;51.448;6.604;2024-03-22T05:01:03;31.98;;;23.55;;
55220;SDS011;41089;51.448;6.604;2024-03-22T05:07:04;34.00;;;22.40;;
55220;SDS011;41089;51.448;6.604;2024-03-22T05:13:04;38.47;;;23.87;;
55220;SDS011;41089;51.448;6.604;2024-03-22T05:19:04;28.50;;;21.40;;
55220;SDS011;41089;51.448;6.604;2024-03-22T05:25:05;30.52;;;22.20;;
55220;SDS011;41089;51.448;6.604;2024-03-22T05:31:06;32.13;;;22.23;;
55220;SDS011;41089;51.448;6.604;2024-03-22T05:37:06;29.87;;;23.03;;
55220;SDS011;41089;51.448;6.604;2024-03-22T05:43:09;31.77;;;22.52;;
55220;SDS011;41089;51.448;6.604;2024-03-22T05:55:09;28.25;;;20.58;;
55220;SDS011;41089;51.448;6.604;2024-03-22T06:01:10;28.07;;;18.83;;
55220;SDS011;41089;51.448;6.604;2024-03-22T06:07:10;26.00;;;20.42;;
55220;SDS011;41089;51.448;6.604;2024-03-22T06:13:11;23.85;;;19.02;;
55220;SDS011;41089;51.448;6.604;2024-03-22T06:19:11;25.80;;;20.27;;
55220;SDS011;41089;51.448;6.604;2024-03-22T06:25:11;27.00;;;19.33;;
55220;SDS011;41089;51.448;6.604;2024-03-22T06:31:12;27.63;;;18.97;;
55220;SDS011;41089;51.448;6.604;2024-03-22T06:37:12;28.13;;;20.20;;
55220;SDS011;41089;51.448;6.604;2024-03-22T06:49:13;27.48;;;19.65;;
55220;SDS011;41089;51.448;6.604;2024-03-22T06:55:13;25.63;;;19.07;;
55220;SDS011;41089;51.448;6.604;2024-03-22T07:01:13;23.77;;;18.87;;
55220;SDS011;41089;51.448;6.604;2024-03-22T07:13:14;21.75;;;17.02;;
55220;SDS011;41089;51.448;6.604;2024-03-22T07:19:14;22.93;;;17.47;;
55220;SDS011;41089;51.448;6.604;2024-03-22T07:25:15;27.57;;;18.37;;
55220;SDS011;41089;51.448;6.604;2024-03-22T07:31:15;23.08;;;17.67;;
55220;SDS011;41089;51.448;6.604;2024-03-22T07:37:16;23.90;;;16.02;;
55220;SDS011;41089;51.448;6.604;2024-03-22T07:49:17;20.52;;;15.07;;
55220;SDS011;41089;51.448;6.604;2024-03-22T07:55:17;20.60;;;14.20;;
55220;SDS011;41089;51.448;6.604;2024-03-22T08:07:18;21.10;;;13.35;;
55220;SDS011;41089;51.448;6.604;2024-03-22T08:13:18;18.80;;;14.20;;
55220;SDS011;41089;51.448;6.604;2024-03-22T08:19:18;18.47;;;13.30;;
55220;SDS011;41089;51.448;6.604;2024-03-22T08:31:20;16.58;;;13.00;;
55220;SDS011;41089;51.448;6.604;2024-03-22T08:37:25;19.80;;;13.13;;
55220;SDS011;41089;51.448;6.604;2024-03-22T08:43:26;16.48;;;12.00;;
55220;SDS011;41089;51.448;6.604;2024-03-22T08:49:29;15.30;;;11.60;;
55220;SDS011;41089;51.448;6.604;2024-03-22T08:55:30;17.02;;;12.85;;
55220;SDS011;41089;51.448;6.604;2024-03-22T09:01:31;13.13;;;11.43;;
55220;SDS011;41089;51.448;6.604;2024-03-22T09:07:33;15.18;;;11.82;;
55220;SDS011;41089;51.448;6.604;2024-03-22T09:13:34;16.23;;;12.65;;
55220;SDS011;41089;51.448;6.604;2024-03-22T09:19:35;18.05;;;12.70;;
55220;SDS011;41089;51.448;6.604;2024-03-22T09:25:35;17.35;;;11.95;;
55220;SDS011;41089;51.448;6.604;2024-03-22T09:31:36;15.50;;;11.93;;
55220;SDS011;41089;51.448;6.604;2024-03-22T09:37:36;15.63;;;11.97;;
55220;SDS011;41089;51.448;6.604;2024-03-22T09:49:37;12.68;;;10.40;;
55220;SDS011;41089;51.448;6.604;2024-03-22T09:55:37;15.20;;;11.35;;
55220;SDS011;41089;51.448;6.604;2024-03-22T10:01:39;13.05;;;11.20;;
55220;SDS011;41089;51.448;6.604;2024-03-22T10:07:40;13.35;;;11.00;;
55220;SDS011;41089;51.448;6.604;2024-03-22T10:13:41;15.38;;;11.98;;
55220;SDS011;41089;51.448;6.604;2024-03-22T10:19:42;22.10;;;12.50;;
55220;SDS011;41089;51.448;6.604;2024-03-22T10:25:42;14.25;;;11.30;;
55220;SDS011;41089;51.448;6.604;2024-03-22T10:31:44;16.00;;;11.80;;
55220;SDS011;41089;51.448;6.604;2024-03-22T10:37:45;12.73;;;10.45;;
55220;SDS011;41089;51.448;6.604;2024-03-22T10:43:46;12.93;;;9.77;;
55220;SDS011;41089;51.448;6.604;2024-03-22T10:49:47;12.15;;;9.60;;
55220;SDS011;41089;51.448;6.604;2024-03-22T10:55:49;18.85;;;10.45;;
55220;SDS011;41089;51.448;6.604;2024-03-22T11:01:51;12.15;;;9.75;;
55220;SDS011;41089;51.448;6.604;2024-03-22T11:08:04;12.15;;;10.30;;
55220;SDS011;41089;51.448;6.604;2024-03-22T11:14:05;10.63;;;9.23;;
55220;SDS011;41089;51.448;6.604;2024-03-22T11:20:06;14.23;;;11.20;;
55220;SDS011;41089;51.448;6.604;2024-03-22T11:26:06;15.27;;;11.07;;
55220;SDS011;41089;51.448;6.604;2024-03-22T11:32:08;11.85;;;10.65;;
55220;SDS011;41089;51.448;6.604;2024-03-22T11:38:08;16.23;;;10.82;;
55220;SDS011;41089;51.448;6.604;2024-03-22T11:44:09;11.90;;;10.18;;
55220;SDS011;41089;51.448;6.604;2024-03-22T11:50:09;14.50;;;10.27;;
55220;SDS011;41089;51.448;6.604;2024-03-22T11:56:11;15.98;;;11.93;;
55220;SDS011;41089;51.448;6.604;2024-03-22T12:02:11;11.20;;;10.03;;
55220;SDS011;41089;51.448;6.604;2024-03-22T12:08:12;12.13;;;10.80;;
55220;SDS011;41089;51.448;6.604;2024-03-22T12:14:13;11.57;;;10.40;;
55220;SDS011;41089;51.448;6.604;2024-03-22T12:20:13;10.63;;;9.57;;
55220;SDS011;41089;51.448;6.604;2024-03-22T12:26:15;12.57;;;10.77;;
55220;SDS011;41089;51.448;6.604;2024-03-22T12:32:15;13.80;;;9.27;;
55220;SDS011;41089;51.448;6.604;2024-03-22T12:38:16;12.10;;;9.45;;
55220;SDS011;41089;51.448;6.604;2024-03-22T12:44:16;10.55;;;8.32;;
55220;SDS011;41089;51.448;6.604;2024-03-22T12:50:17;9.53;;;8.63;;
55220;SDS011;41089;51.448;6.604;2024-03-22T12:56:18;12.77;;;9.23;;
55220;SDS011;41089;51.448;6.604;2024-03-22T13:02:18;10.75;;;9.15;;
55220;SDS011;41089;51.448;6.604;2024-03-22T13:08:19;11.90;;;10.17;;
55220;SDS011;41089;51.448;6.604;2024-03-22T13:14:19;12.05;;;10.70;;
55220;SDS011;41089;51.448;6.604;2024-03-22T13:20:20;11.60;;;10.48;;
55220;SDS011;41089;51.448;6.604;2024-03-22T13:26:20;11.73;;;10.07;;
55220;SDS011;41089;51.448;6.604;2024-03-22T13:32:21;12.32;;;10.93;;
55220;SDS011;41089;51.448;6.604;2024-03-22T13:38:23;12.05;;;10.85;;
55220;SDS011;41089;51.448;6.604;2024-03-22T13:44:23;15.95;;;11.75;;
55220;SDS011;41089;51.448;6.604;2024-03-22T13:50:24;15.68;;;11.43;;
55220;SDS011;41089;51.448;6.604;2024-03-22T13:56:24;19.20;;;12.77;;
55220;SDS011;41089;51.448;6.604;2024-03-22T14:02:25;17.93;;;12.97;;
55220;SDS011;41089;51.448;6.604;2024-03-22T14:08:25;15.13;;;13.47;;
55220;SDS011;41089;51.448;6.604;2024-03-22T14:14:26;17.02;;;13.45;;
55220;SDS011;41089;51.448;6.604;2024-03-22T14:20:26;19.30;;;15.10;;
55220;SDS011;41089;51.448;6.604;2024-03-22T14:26:30;17.10;;;15.13;;
55220;SDS011;41089;51.448;6.604;2024-03-22T14:32:34;16.40;;;14.70;;
55220;SDS011;41089;51.448;6.604;2024-03-22T14:38:36;17.38;;;14.13;;
55220;SDS011;41089;51.448;6.604;2024-03-22T14:44:36;20.20;;;14.70;;
55220;SDS011;41089;51.448;6.604;2024-03-22T14:50:37;19.90;;;15.67;;
55220;SDS011;41089;51.448;6.604;2024-03-22T14:56:41;17.70;;;15.30;;
55220;SDS011;41089;51.448;6.604;2024-03-22T15:02:41;18.30;;;15.10;;
55220;SDS011;41089;51.448;6.604;2024-03-22T15:08:41;17.58;;;15.70;;
55220;SDS011;41089;51.448;6.604;2024-03-22T15:14:42;24.92;;;17.80;;
55220;SDS011;41089;51.448;6.604;2024-03-22T15:26:42;20.55;;;16.60;;
55220;SDS011;41089;51.448;6.604;2024-03-22T15:32:43;22.97;;;17.43;;
55220;SDS011;41089;51.448;6.604;2024-03-22T15:38:44;18.80;;;16.00;;
55220;SDS011;41089;51.448;6.604;2024-03-22T15:44:45;19.35;;;16.42;;
55220;SDS011;41089;51.448;6.604;2024-03-22T15:50:46;20.52;;;16.92;;
55220;SDS011;41089;51.448;6.604;2024-03-22T15:56:46;19.88;;;18.08;;
55220;SDS011;41089;51.448;6.604;2024-03-22T16:02:47;21.83;;;19.00;;
55220;SDS011;41089;51.448;6.604;2024-03-22T16:08:48;21.88;;;18.45;;
55220;SDS011;41089;51.448;6.604;2024-03-22T16:14:50;19.15;;;17.10;;
55220;SDS011;41089;51.448;6.604;2024-03-22T16:20:52;21.27;;;17.08;;
55220;SDS011;41089;51.448;6.604;2024-03-22T16:26:52;20.05;;;17.73;;
55220;SDS011;41089;51.448;6.604;2024-03-22T16:32:53;18.40;;;16.50;;
55220;SDS011;41089;51.448;6.604;2024-03-22T16:38:53;20.57;;;16.27;;
55220;SDS011;41089;51.448;6.604;2024-03-22T16:44:54;18.02;;;16.13;;
55220;SDS011;41089;51.448;6.604;2024-03-22T16:50:54;20.13;;;16.40;;
55220;SDS011;41089;51.448;6.604;2024-03-22T16:56:55;21.65;;;18.38;;
55220;SDS011;41089;51.448;6.604;2024-03-22T17:02:55;24.53;;;19.07;;
55220;SDS011;41089;51.448;6.604;2024-03-22T17:14:56;26.52;;;19.92;;
55220;SDS011;41089;51.448;6.604;2024-03-22T17:20:57;21.52;;;19.00;;
55220;SDS011;41089;51.448;6.604;2024-03-22T17:26:58;23.10;;;20.00;;
55220;SDS011;41089;51.448;6.604;2024-03-22T17:32:59;14.48;;;12.75;;
55220;SDS011;41089;51.448;6.604;2024-03-22T17:39:00;11.82;;;9.38;;
55220;SDS011;41089;51.448;6.604;2024-03-22T17:45:00;9.53;;;8.43;;
55220;SDS011;41089;51.448;6.604;2024-03-22T17:51:02;9.40;;;8.45;;
55220;SDS011;41089;51.448;6.604;2024-03-22T17:57:02;11.93;;;10.07;;
55220;SDS011;41089;51.448;6.604;2024-03-22T18:03:04;13.25;;;8.88;;
55220;SDS011;41089;51.448;6.604;2024-03-22T18:09:04;8.75;;;7.85;;
55220;SDS011;41089;51.448;6.604;2024-03-22T18:15:10;7.32;;;6.05;;
55220;SDS011;41089;51.448;6.604;2024-03-22T18:27:12;13.65;;;5.95;;
55220;SDS011;41089;51.448;6.604;2024-03-22T18:33:12;15.25;;;6.78;;
55220;SDS011;41089;51.448;6.604;2024-03-22T18:39:13;14.82;;;7.63;;
55220;SDS011;41089;51.448;6.604;2024-03-22T18:45:14;18.95;;;6.95;;
55220;SDS011;41089;51.448;6.604;2024-03-22T18:51:15;16.60;;;6.72;;
55220;SDS011;41089;51.448;6.604;2024-03-22T18:57:15;15.38;;;6.75;;
55220;SDS011;41089;51.448;6.604;2024-03-22T19:03:16;15.63;;;6.57;;
55220;SDS011;41089;51.448;6.604;2024-03-22T19:09:16;17.20;;;8.43;;
55220;SDS011;41089;51.448;6.604;2024-03-22T19:15:18;16.92;;;7.15;;
55220;SDS011;41089;51.448;6.604;2024-03-22T19:21:18;19.05;;;8.10;;
55220;SDS011;41089;51.448;6.604;2024-03-22T19:27:19;16.77;;;10.40;;
55220;SDS011;41089;51.448;6.604;2024-03-22T19:33:19;16.48;;;8.32;;
55220;SDS011;41089;51.448;6.604;2024-03-22T19:39:20;13.27;;;8.00;;
55220;SDS011;41089;51.448;6.604;2024-03-22T19:45:21;17.77;;;8.57;;
55220;SDS011;41089;51.448;6.604;2024-03-22T19:51:21;22.35;;;10.43;;
55220;SDS011;41089;51.448;6.604;2024-03-22T19:57:23;16.90;;;9.50;;
55220;SDS011;41089;51.448;6.604;2024-03-22T20:03:24;25.30;;;12.00;;
55220;SDS011;41089;51.448;6.604;2024-03-22T20:09:24;20.63;;;12.15;;
55220;SDS011;41089;51.448;6.604;2024-03-22T20:15:24;20.85;;;11.43;;
55220;SDS011;41089;51.448;6.604;2024-03-22T20:21:27;15.75;;;12.00;;
55220;SDS011;41089;51.448;6.604;2024-03-22T20:27:27;19.63;;;11.27;;
55220;SDS011;41089;51.448;6.604;2024-03-22T20:33:28;20.17;;;10.85;;
